Time;durP1;ratioP1;P1;durP2;ratioP2;P2;SDS_P1;SDS_P2;PMS_P1;PMS_P2;Temp;Humidity;BMP_temperature;BMP_pressure;BME280_temperature;BME280_humidity;BME280_pressure;Samples;Min_cycle;Max_cycle;Signal;HPM_P1;HPM_P2
2023/06/29 00:00:21;;;;;;;2.38;1.63;;;14.50;99.90;;;;;;5025265;28;20172;-77
2023/06/29 00:02:48;;;;;;;1.73;1.63;;;14.40;99.90;;;;;;5009712;28;20179;-77
2023/06/29 00:05:14;;;;;;;2.65;1.55;;;14.50;99.90;;;;;;5009964;28;20022;-77
2023/06/29 00:07:40;;;;;;;1.75;1.65;;;14.40;99.90;;;;;;5009470;28;20101;-77
2023/06/29 00:10:08;;;;;;;2.28;1.70;;;14.40;99.90;;;;;;5025226;28;20618;-76
2023/06/29 00:12:34;;;;;;;7.60;2.83;;;14.40;99.90;;;;;;5024936;28;20125;-77
2023/06/29 00:14:59;;;;;;;3.13;1.40;;;14.50;99.90;;;;;;5024532;28;20228;-78
2023/06/29 00:17:25;;;;;;;3.58;2.38;;;14.50;99.90;;;;;;5024949;28;20040;-77
2023/06/29 00:19:51;;;;;;;3.90;1.50;;;14.60;99.90;;;;;;5010041;28;20026;-77
2023/06/29 00:22:18;;;;;;;6.28;1.88;;;14.40;99.90;;;;;;5009791;28;20033;-77
2023/06/29 00:24:44;;;;;;;3.88;2.45;;;14.40;99.90;;;;;;5009908;28;20513;-77
2023/06/29 00:27:14;;;;;;;4.18;1.92;;;14.40;99.90;;;;;;5009750;28;20026;-77
2023/06/29 00:29:40;;;;;;;;;;;14.30;99.90;;;;;;5010120;28;20032;-77
2023/06/29 00:32:06;;;;;;;2.22;1.60;;;14.40;99.90;;;;;;5008377;28;20417;-77
2023/06/29 00:34:32;;;;;;;3.10;1.65;;;14.40;99.90;;;;;;5024537;28;20049;-77
2023/06/29 00:36:58;;;;;;;3.65;2.00;;;14.40;99.90;;;;;;5009918;28;20534;-77
2023/06/29 00:39:24;;;;;;;2.22;2.03;;;14.30;99.90;;;;;;5009977;28;20438;-77
2023/06/29 00:41:53;;;;;;;2.55;1.75;;;14.30;99.90;;;;;;5009763;28;20022;-77
2023/06/29 00:44:19;;;;;;;4.75;2.60;;;14.40;99.90;;;;;;5008214;28;20025;-77
2023/06/29 00:46:46;;;;;;;5.07;2.25;;;14.40;99.90;;;;;;5009894;28;20026;-77
2023/06/29 00:49:12;;;;;;;6.22;1.83;;;14.50;99.90;;;;;;5012397;28;20025;-77
2023/06/29 00:51:37;;;;;;;3.42;2.53;;;14.50;99.90;;;;;;5013117;28;20228;-78
2023/06/29 00:54:03;;;;;;;4.10;2.08;;;14.40;99.90;;;;;;5013305;28;20120;-78
2023/06/29 00:56:31;;;;;;;7.28;2.92;;;14.40;99.90;;;;;;5013344;28;20045;-77
2023/06/29 00:58:57;;;;;;;6.25;2.28;;;14.40;99.90;;;;;;5012776;28;20467;-77
2023/06/29 01:01:22;;;;;;;2.88;2.03;;;14.40;99.90;;;;;;5012012;28;20036;-77
2023/06/29 01:03:48;;;;;;;5.43;2.00;;;14.40;99.90;;;;;;5013217;28;20030;-78
2023/06/29 01:06:19;;;;;;;2.30;2.10;;;14.40;99.90;;;;;;5013219;28;20088;-77
2023/06/29 01:08:47;;;;;;;2.60;2.20;;;14.30;99.90;;;;;;5012776;28;20059;-77
2023/06/29 01:11:14;;;;;;;2.92;2.63;;;14.40;99.90;;;;;;5013125;28;20135;-77
2023/06/29 01:13:42;;;;;;;4.47;2.28;;;14.30;99.90;;;;;;5012694;28;20045;-77
2023/06/29 01:16:09;;;;;;;5.32;2.42;;;14.30;99.90;;;;;;5012933;28;20185;-77
2023/06/29 01:18:37;;;;;;;5.00;2.15;;;14.20;99.90;;;;;;5028048;28;20187;-77
2023/06/29 01:21:03;;;;;;;1.92;1.80;;;14.20;99.90;;;;;;5013052;28;20022;-77
2023/06/29 01:23:36;;;;;;;3.28;1.88;;;14.20;99.90;;;;;;5012448;28;20094;-77
2023/06/29 01:26:03;;;;;;;8.27;2.83;;;14.20;99.90;;;;;;5012354;28;20054;-77
2023/06/29 01:28:32;;;;;;;1.80;1.70;;;14.20;99.90;;;;;;5012253;28;20050;-77
2023/06/29 01:30:58;;;;;;;3.78;2.53;;;14.10;99.90;;;;;;5012135;28;20383;-77
2023/06/29 01:33:24;;;;;;;5.65;2.45;;;14.20;99.90;;;;;;5012510;28;20017;-76
2023/06/29 01:35:57;;;;;;;5.03;2.47;;;14.20;99.90;;;;;;5012667;28;20045;-77
2023/06/29 01:38:30;;;;;;;4.85;2.00;;;14.30;99.90;;;;;;5012633;28;20040;-77
2023/06/29 01:40:57;;;;;;;3.38;2.20;;;14.40;99.90;;;;;;5012546;28;20026;-77
2023/06/29 01:43:28;;;;;;;4.13;2.45;;;14.30;99.90;;;;;;5012144;28;20041;-77
2023/06/29 01:45:53;;;;;;;11.00;2.22;;;14.30;99.90;;;;;;5012210;28;20032;-77
2023/06/29 01:48:20;;;;;;;3.55;3.00;;;14.40;99.90;;;;;;5027316;28;20458;-77
2023/06/29 01:50:48;;;;;;;3.50;2.00;;;14.40;99.90;;;;;;5011830;28;20038;-77
2023/06/29 01:53:13;;;;;;;4.32;2.15;;;14.40;99.90;;;;;;5012431;28;20499;-77
2023/06/29 01:55:39;;;;;;;2.28;2.08;;;14.40;99.90;;;;;;5012670;28;20106;-77
2023/06/29 01:58:05;;;;;;;2.92;1.80;;;14.40;99.90;;;;;;5011913;28;20025;-77
2023/06/29 02:00:30;;;;;;;3.50;2.20;;;14.40;99.90;;;;;;5011020;28;20361;-77
2023/06/29 02:02:56;;;;;;;2.83;1.92;;;14.30;99.90;;;;;;5011925;28;20483;-77
2023/06/29 02:05:22;;;;;;;2.72;2.50;;;14.20;99.90;;;;;;5027582;28;20033;-77
2023/06/29 02:07:47;;;;;;;6.07;2.65;;;14.20;99.90;;;;;;5011943;28;20522;-77
2023/06/29 02:10:13;;;;;;;2.67;2.10;;;14.10;99.90;;;;;;5011905;28;20022;-77
2023/06/29 02:12:40;;;;;;;4.65;2.25;;;14.00;99.90;;;;;;5011746;28;20107;-77
2023/06/29 02:15:06;;;;;;;2.90;2.25;;;14.00;99.90;;;;;;5012212;28;20061;-77
2023/06/29 02:17:32;;;;;;;2.03;1.80;;;14.00;99.90;;;;;;5011534;28;20041;-78
2023/06/29 02:19:57;;;;;;;5.93;2.50;;;14.10;99.90;;;;;;5011639;28;20022;-77
2023/06/29 02:22:23;;;;;;;3.10;2.03;;;14.10;99.90;;;;;;5011537;28;20022;-78
2023/06/29 02:24:48;;;;;;;7.15;3.30;;;14.10;99.90;;;;;;5011479;28;20474;-77
2023/06/29 02:27:14;;;;;;;3.20;2.78;;;14.00;99.90;;;;;;5012131;28;20034;-77
2023/06/29 02:29:40;;;;;;;3.50;2.53;;;14.00;99.90;;;;;;5011250;28;20041;-77
2023/06/29 02:32:06;;;;;;;4.65;2.65;;;14.00;99.90;;;;;;5026658;28;20418;-77
2023/06/29 02:34:31;;;;;;;6.28;3.17;;;14.10;99.90;;;;;;5026896;28;20029;-77
2023/06/29 02:36:57;;;;;;;4.78;2.42;;;14.10;99.90;;;;;;5026549;28;20141;-78
2023/06/29 02:39:23;;;;;;;7.43;2.83;;;14.00;99.90;;;;;;5027189;28;20053;-77
2023/06/29 02:41:48;;;;;;;4.93;2.28;;;14.00;99.90;;;;;;5026582;28;20065;-77
2023/06/29 02:44:14;;;;;;;5.50;2.95;;;13.90;99.90;;;;;;5011121;28;20113;-77
2023/06/29 02:46:40;;;;;;;8.25;2.95;;;13.90;99.90;;;;;;5011425;28;20470;-77
2023/06/29 02:49:06;;;;;;;8.52;2.83;;;13.90;99.90;;;;;;5010989;28;20030;-77
2023/06/29 02:51:32;;;;;;;5.20;2.72;;;13.90;99.90;;;;;;5011434;28;20030;-77
2023/06/29 02:53:58;;;;;;;4.32;3.17;;;13.90;99.90;;;;;;5010890;28;20389;-76
2023/06/29 02:56:23;;;;;;;3.50;2.85;;;14.00;99.90;;;;;;5011131;28;20056;-77
2023/06/29 02:58:49;;;;;;;10.73;2.67;;;14.00;99.90;;;;;;5010819;28;20080;-77
2023/06/29 03:01:15;;;;;;;2.85;2.50;;;13.90;99.90;;;;;;5010838;28;20379;-77
2023/06/29 03:03:40;;;;;;;4.07;2.92;;;13.90;99.90;;;;;;5011614;28;20022;-77
2023/06/29 03:06:06;;;;;;;2.55;2.30;;;13.90;99.90;;;;;;5026379;28;20029;-76
2023/06/29 03:08:32;;;;;;;6.85;2.35;;;13.90;99.90;;;;;;5011110;28;20479;-77
2023/06/29 03:10:57;;;;;;;2.88;2.17;;;13.90;99.90;;;;;;5011012;28;20041;-78
2023/06/29 03:13:23;;;;;;;2.10;1.88;;;13.90;99.90;;;;;;5010852;28;20022;-77
2023/06/29 03:15:48;;;;;;;3.35;2.00;;;13.90;99.90;;;;;;5011605;28;20145;-77
2023/06/29 03:18:14;;;;;;;4.10;2.50;;;13.80;99.90;;;;;;5026358;28;20104;-77
2023/06/29 03:20:40;;;;;;;6.07;2.15;;;13.90;99.90;;;;;;5026342;28;20029;-77
2023/06/29 03:23:05;;;;;;;4.47;3.17;;;13.90;99.90;;;;;;5011770;28;20025;-77
2023/06/29 03:25:31;;;;;;;7.50;2.50;;;13.80;99.90;;;;;;5027653;28;20022;-76
2023/06/29 03:27:56;;;;;;;2.63;2.38;;;13.80;99.90;;;;;;5011987;28;20026;-77
2023/06/29 03:30:22;;;;;;;3.70;2.85;;;13.90;99.90;;;;;;5010519;28;20022;-77
2023/06/29 03:32:48;;;;;;;4.80;2.60;;;13.80;99.90;;;;;;5025546;28;20029;-77
2023/06/29 03:35:13;;;;;;;4.72;2.45;;;13.90;99.90;;;;;;5010428;28;20087;-77
2023/06/29 03:37:39;;;;;;;5.82;2.53;;;14.00;99.90;;;;;;5010659;28;20030;-77
2023/06/29 03:40:05;;;;;;;5.82;2.83;;;14.00;99.90;;;;;;5010560;28;20018;-77
2023/06/29 03:42:31;;;;;;;5.35;3.53;;;14.10;99.90;;;;;;5010125;28;20021;-77
2023/06/29 03:44:57;;;;;;;4.18;2.65;;;14.10;99.90;;;;;;5010375;28;20430;-77
2023/06/29 03:47:22;;;;;;;4.85;2.45;;;14.20;99.90;;;;;;5025464;28;20029;-77
2023/06/29 03:49:48;;;;;;;2.88;2.58;;;14.20;99.90;;;;;;5008770;28;20073;-77
2023/06/29 03:52:13;;;;;;;7.70;3.15;;;14.20;99.90;;;;;;5009979;28;20034;-77
2023/06/29 03:54:39;;;;;;;3.40;2.65;;;14.20;99.90;;;;;;5010350;28;20527;-77
2023/06/29 03:57:05;;;;;;;4.10;2.40;;;14.20;99.90;;;;;;5010165;28;20193;-77
2023/06/29 03:59:31;;;;;;;4.80;2.22;;;14.30;99.90;;;;;;5009531;28;20026;-77
2023/06/29 04:01:57;;;;;;;2.33;2.10;;;14.30;99.90;;;;;;5009230;28;20026;-77
2023/06/29 04:04:23;;;;;;;1.83;1.73;;;14.40;99.90;;;;;;5009439;28;20029;-77
2023/06/29 04:06:48;;;;;;;3.22;2.22;;;14.50;99.90;;;;;;5009640;28;20026;-77
2023/06/29 04:09:14;;;;;;;3.20;2.30;;;14.50;99.90;;;;;;5009628;28;20018;-77
2023/06/29 04:11:40;;;;;;;3.83;2.60;;;14.60;99.90;;;;;;5009368;28;20049;-77
2023/06/29 04:14:06;;;;;;;2.10;1.88;;;14.70;99.90;;;;;;5023934;28;20459;-77
2023/06/29 04:16:31;;;;;;;2.45;2.13;;;14.90;99.90;;;;;;5024906;28;20022;-77
2023/06/29 04:18:57;;;;;;;4.40;2.60;;;15.00;99.90;;;;;;5009764;28;20037;-77
2023/06/29 04:21:23;;;;;;;2.80;2.13;;;15.10;99.90;;;;;;5009390;28;20423;-77
2023/06/29 04:23:48;;;;;;;6.18;1.88;;;15.10;99.90;;;;;;5011426;28;20387;-77
2023/06/29 04:26:15;;;;;;;3.63;2.42;;;15.20;99.90;;;;;;5013242;28;20103;-77
2023/06/29 04:28:44;;;;;;;11.15;2.42;;;15.20;99.90;;;;;;5012723;28;20045;-77
2023/06/29 04:31:10;;;;;;;2.97;2.03;;;15.40;99.90;;;;;;5012843;28;20471;-77
2023/06/29 04:33:37;;;;;;;2.22;2.03;;;15.50;99.90;;;;;;5028321;28;20029;-77
2023/06/29 04:36:03;;;;;;;5.30;2.47;;;15.70;99.90;;;;;;5012676;28;20045;-77
2023/06/29 04:38:29;;;;;;;3.45;2.38;;;15.70;99.90;;;;;;5028260;28;20497;-77
2023/06/29 04:41:03;;;;;;;5.45;2.58;;;15.80;99.90;;;;;;5012880;28;20014;-77
2023/06/29 04:43:32;;;;;;;3.00;1.83;;;15.90;99.90;;;;;;5013332;28;20025;-77
2023/06/29 04:45:58;;;;;;;4.50;2.60;;;16.10;99.90;;;;;;5012984;28;20032;-77
2023/06/29 04:48:29;;;;;;;5.15;2.60;;;16.10;99.90;;;;;;5027795;28;20465;-77
2023/06/29 04:51:07;;;;;;;2.10;1.90;;;16.20;99.90;;;;;;5011496;28;20038;-78
2023/06/29 04:53:33;;;;;;;3.78;2.85;;;16.30;99.90;;;;;;5012771;28;20108;-77
2023/06/29 04:56:01;;;;;;;4.05;2.50;;;16.50;99.90;;;;;;5027941;28;20112;-77
2023/06/29 04:58:27;;;;;;;2.22;2.10;;;16.50;99.90;;;;;;5027490;28;20026;-76
2023/06/29 05:00:54;;;;;;;4.65;2.20;;;16.60;99.90;;;;;;5012773;28;20068;-77
2023/06/29 05:03:20;;;;;;;4.07;2.80;;;16.70;99.90;;;;;;5012579;28;20025;-77
2023/06/29 05:05:46;;;;;;;5.10;2.67;;;16.80;99.90;;;;;;5012603;28;20390;-77
2023/06/29 05:08:11;;;;;;;3.63;2.03;;;17.00;99.90;;;;;;5012410;28;20479;-77
2023/06/29 05:10:37;;;;;;;2.10;2.00;;;17.10;99.90;;;;;;5012607;28;20018;-77
2023/06/29 05:13:03;;;;;;;5.95;2.30;;;17.30;99.90;;;;;;5027458;28;20034;-77
2023/06/29 05:15:28;;;;;;;3.10;2.45;;;17.40;99.90;;;;;;5012741;28;20113;-77
2023/06/29 05:17:54;;;;;;;3.22;2.20;;;17.40;99.90;;;;;;5012246;28;20034;-76
2023/06/29 05:20:20;;;;;;;3.15;2.15;;;17.60;99.90;;;;;;5012602;28;20021;-77
2023/06/29 05:22:46;;;;;;;2.92;2.13;;;17.60;99.90;;;;;;5012141;28;20018;-77
2023/06/29 05:25:11;;;;;;;2.30;2.10;;;17.70;99.90;;;;;;5012316;28;20506;-77
2023/06/29 05:27:37;;;;;;;4.47;2.25;;;17.70;99.90;;;;;;5011931;28;20033;-77
2023/06/29 05:30:03;;;;;;;2.38;2.00;;;17.60;99.90;;;;;;5012153;28;20022;-78
2023/06/29 05:32:30;;;;;;;4.10;2.45;;;17.60;99.90;;;;;;5012503;28;20033;-77
2023/06/29 05:34:56;;;;;;;3.17;2.67;;;17.40;99.90;;;;;;5026995;28;20045;-79
2023/06/29 05:37:22;;;;;;;3.72;3.17;;;17.30;99.90;;;;;;5014680;28;20034;-80
2023/06/29 05:39:47;;;;;;;6.35;2.67;;;17.20;99.90;;;;;;5015770;28;20101;-79
2023/06/29 05:42:13;;;;;;;4.50;2.47;;;17.00;99.90;;;;;;5027025;28;20117;-77
2023/06/29 05:44:39;;;;;;;3.03;2.28;;;16.90;99.90;;;;;;5017774;28;20018;-78
2023/06/29 05:47:04;;;;;;;3.47;2.53;;;16.90;99.90;;;;;;5012158;28;20467;-77
2023/06/29 05:49:30;;;;;;;3.22;2.20;;;16.90;99.90;;;;;;5013115;28;20168;-78
2023/06/29 05:51:56;;;;;;;3.58;3.28;;;16.90;99.90;;;;;;5022060;28;20073;-77
2023/06/29 05:54:21;;;;;;;5.57;3.22;;;17.10;99.90;;;;;;5022082;28;20274;-78
2023/06/29 05:56:47;;;;;;;7.63;3.50;;;17.10;99.90;;;;;;5013722;28;20018;-79
2023/06/29 05:59:12;;;;;;;5.15;2.90;;;17.60;99.90;;;;;;5011199;28;20033;-80
2023/06/29 06:01:38;;;;;;;7.07;3.40;;;17.80;99.90;;;;;;5011722;28;20371;-78
2023/06/29 06:04:04;;;;;;;4.43;2.58;;;17.80;99.90;;;;;;5011651;28;20096;-80
2023/06/29 06:06:30;;;;;;;4.20;2.83;;;18.10;99.90;;;;;;5010831;28;20029;-79
2023/06/29 06:08:56;;;;;;;5.50;2.67;;;18.30;99.90;;;;;;5011516;28;20018;-79
2023/06/29 06:11:22;;;;;;;6.45;3.47;;;18.90;99.90;;;;;;5011575;28;20033;-80
2023/06/29 06:13:48;;;;;;;7.35;3.38;;;19.20;99.90;;;;;;5017433;28;20199;-80
2023/06/29 06:16:14;;;;;;;8.77;3.83;;;19.30;99.90;;;;;;5021787;28;20022;-77
2023/06/29 06:18:39;;;;;;;3.67;2.53;;;19.20;99.90;;;;;;5021430;28;20021;-77
2023/06/29 06:21:05;;;;;;;4.28;3.53;;;19.50;99.90;;;;;;5021525;28;20018;-77
2023/06/29 06:23:31;;;;;;;4.25;3.22;;;19.50;99.90;;;;;;5021553;28;20060;-80
2023/06/29 06:25:56;;;;;;;4.07;2.83;;;19.90;99.90;;;;;;5020701;28;20017;-78
2023/06/29 06:28:24;;;;;;;6.78;2.80;;;20.20;99.90;;;;;;5020373;28;20025;-79
2023/06/29 06:30:49;;;;;;;3.28;2.70;;;20.20;99.90;;;;;;5036932;28;20072;-78
2023/06/29 06:33:16;;;;;;;6.65;3.47;;;20.20;99.90;;;;;;5021084;28;20022;-81
2023/06/29 06:35:42;;;;;;;8.60;3.13;;;20.00;99.90;;;;;;5036587;28;20074;-78
2023/06/29 06:38:08;;;;;;;3.03;2.72;;;20.00;99.90;;;;;;5036519;28;20036;-78
2023/06/29 06:40:34;;;;;;;6.70;2.70;;;20.40;99.90;;;;;;5021065;28;20338;-78
2023/06/29 06:42:59;;;;;;;3.38;2.47;;;20.90;99.90;;;;;;5019141;28;20348;-80
2023/06/29 06:45:25;;;;;;;5.60;2.70;;;21.70;99.90;;;;;;5021118;28;20010;-75
2023/06/29 06:47:50;;;;;;;4.25;2.88;;;23.00;99.40;;;;;;5021491;28;20202;-70
2023/06/29 06:50:16;;;;;;;5.88;2.47;;;24.10;94.90;;;;;;5020329;28;20056;-70
2023/06/29 06:52:42;;;;;;;10.38;2.40;;;24.90;90.60;;;;;;5019567;28;20067;-71
2023/06/29 06:55:07;;;;;;;3.35;2.15;;;25.60;85.90;;;;;;5020285;28;20375;-69
2023/06/29 06:57:33;;;;;;;5.97;1.98;;;26.70;79.30;;;;;;5019544;28;20249;-70
2023/06/29 06:59:59;;;;;;;7.45;2.25;;;27.80;73.10;;;;;;5019629;28;20022;-72
2023/06/29 07:02:24;;;;;;;4.05;2.30;;;27.90;68.80;;;;;;5035453;28;20129;-75
2023/06/29 07:04:50;;;;;;;4.57;2.22;;;28.20;68.70;;;;;;5013279;28;20044;-75
2023/06/29 07:07:16;;;;;;;2.25;1.95;;;28.80;67.00;;;;;;5008967;28;20018;-73
2023/06/29 07:09:43;;;;;;;3.25;2.00;;;29.40;64.50;;;;;;5009536;28;20022;-78
2023/06/29 07:12:09;;;;;;;5.50;1.88;;;29.30;65.00;;;;;;5009978;28;20022;-83
2023/06/29 07:14:36;;;;;;;4.72;1.90;;;29.40;63.00;;;;;;5010092;28;20018;-80
2023/06/29 07:17:01;;;;;;;3.95;1.90;;;28.80;63.80;;;;;;5011748;28;20059;-78
2023/06/29 07:19:27;;;;;;;5.20;2.10;;;28.80;63.70;;;;;;5026751;28;20029;-79
2023/06/29 07:21:53;;;;;;;4.55;1.83;;;28.80;64.20;;;;;;5010464;28;20110;-81
2023/06/29 07:24:21;;;;;;;5.25;2.20;;;28.40;64.10;;;;;;5017342;28;20129;-79
2023/06/29 07:26:46;;;;;;;4.40;2.23;;;29.10;64.50;;;;;;5028587;28;20067;-81
2023/06/29 07:29:12;;;;;;;4.55;2.00;;;29.30;63.60;;;;;;5008249;28;20025;-82
2023/06/29 07:31:39;;;;;;;3.55;2.20;;;29.30;62.80;;;;;;5026792;28;20037;-78
2023/06/29 07:34:05;;;;;;;3.75;2.47;;;28.80;62.90;;;;;;5011774;28;20148;-78
2023/06/29 07:36:30;;;;;;;5.93;3.13;;;28.30;62.70;;;;;;5013616;28;20049;-84
2023/06/29 07:38:56;;;;;;;3.45;2.05;;;28.00;64.30;;;;;;5012152;28;20463;-77
2023/06/29 07:41:22;;;;;;;8.98;2.47;;;27.80;64.80;;;;;;5015357;28;20022;-78
2023/06/29 07:43:55;;;;;;;8.43;3.50;;;28.20;64.50;;;;;;5007020;28;20549;-82
2023/06/29 07:46:20;;;;;;;7.38;2.55;;;27.60;64.10;;;;;;5019863;28;20526;-78
2023/06/29 07:48:47;;;;;;;10.45;3.05;;;27.60;64.30;;;;;;5008855;28;20026;-78
2023/06/29 07:51:13;;;;;;;5.22;2.80;;;27.30;63.70;;;;;;5023783;28;20076;-79
2023/06/29 07:53:39;;;;;;;5.55;1.80;;;27.90;65.00;;;;;;5023644;28;20419;-76
2023/06/29 07:56:05;;;;;;;2.97;1.70;;;28.10;62.20;;;;;;5008135;28;20518;-79
2023/06/29 07:58:31;;;;;;;10.32;1.90;;;28.50;62.80;;;;;;5011306;28;20352;-79
2023/06/29 08:00:57;;;;;;;4.22;2.08;;;29.20;61.50;;;;;;5018268;28;20038;-78
2023/06/29 08:03:22;;;;;;;3.40;2.13;;;28.90;60.90;;;;;;5019118;28;20313;-77
2023/06/29 08:05:50;;;;;;;7.45;2.30;;;28.10;62.90;;;;;;5014934;28;20018;-81
2023/06/29 08:08:16;;;;;;;4.15;2.03;;;28.90;63.00;;;;;;5007537;28;20041;-78
2023/06/29 08:10:42;;;;;;;2.30;1.85;;;29.30;60.20;;;;;;5006678;28;20026;-78
2023/06/29 08:13:07;;;;;;;5.38;2.15;;;29.60;59.20;;;;;;5005958;28;20387;-79
2023/06/29 08:15:33;;;;;;;3.92;1.80;;;29.90;58.90;;;;;;5006696;28;20022;-76
2023/06/29 08:17:59;;;;;;;4.28;2.33;;;29.90;59.70;;;;;;5021934;28;20022;-84
2023/06/29 08:20:24;;;;;;;4.45;2.05;;;29.50;60.10;;;;;;5004481;28;20111;-85
2023/06/29 08:22:51;;;;;;;3.35;2.08;;;29.20;60.70;;;;;;5021929;28;20446;-83
2023/06/29 08:25:16;;;;;;;3.63;2.00;;;28.80;60.00;;;;;;5022862;28;20054;-84
2023/06/29 08:27:42;;;;;;;3.65;1.80;;;28.70;62.30;;;;;;5007376;28;20056;-85
2023/06/29 08:30:09;;;;;;;5.63;2.45;;;29.00;62.40;;;;;;5007386;28;20500;-81
2023/06/29 08:32:34;;;;;;;3.47;2.10;;;29.20;60.60;;;;;;5005479;28;20045;-86
2023/06/29 08:35:00;;;;;;;4.40;2.85;;;29.30;59.50;;;;;;5023241;28;20046;-84
2023/06/29 08:37:28;;;;;;;2.03;1.80;;;29.30;60.20;;;;;;5023356;28;20048;-83
2023/06/29 08:39:54;;;;;;;3.60;2.33;;;29.20;60.90;;;;;;5009579;28;20064;-85
2023/06/29 08:42:20;;;;;;;2.92;1.80;;;28.80;59.40;;;;;;5024709;28;20022;-86
2023/06/29 08:44:46;;;;;;;5.45;1.58;;;28.80;59.60;;;;;;5010058;28;20428;-85
2023/06/29 08:47:14;;;;;;;3.10;1.58;;;29.10;60.50;;;;;;5008219;28;20029;-86
2023/06/29 08:49:42;;;;;;;2.83;1.60;;;29.30;61.20;;;;;;5008355;28;20080;-82
2023/06/29 08:52:18;;;;;;;4.53;1.58;;;30.00;58.50;;;;;;5009669;28;20033;-83
2023/06/29 08:54:45;;;;;;;2.08;1.45;;;30.60;59.10;;;;;;5008446;28;20033;-83
2023/06/29 08:57:10;;;;;;;1.83;1.65;;;31.10;57.10;;;;;;5024685;28;20387;-81
2023/06/29 08:59:40;;;;;;;2.60;1.77;;;31.80;55.60;;;;;;5024510;28;20033;-83
2023/06/29 09:02:06;;;;;;;6.18;1.75;;;31.60;55.00;;;;;;5009586;28;20030;-82
2023/06/29 09:04:32;;;;;;;2.13;1.55;;;31.70;55.30;;;;;;5024735;28;20029;-83
2023/06/29 09:06:57;;;;;;;1.70;1.60;;;31.50;55.80;;;;;;5009552;28;20030;-83
2023/06/29 09:09:23;;;;;;;3.83;2.15;;;31.50;57.50;;;;;;5026095;28;20044;-80
2023/06/29 09:11:50;;;;;;;4.05;1.77;;;31.70;55.00;;;;;;5028399;28;20034;-82
2023/06/29 09:14:15;;;;;;;3.40;1.95;;;30.70;55.50;;;;;;5012810;28;20022;-86
2023/06/29 09:16:58;;;;;;;2.17;1.60;;;29.90;57.80;;;;;;5028097;28;20178;-84
2023/06/29 09:19:24;;;;;;;5.70;2.17;;;29.90;57.60;;;;;;5012819;28;20030;-87
2023/06/29 09:21:50;;;;;;;2.83;1.67;;;29.10;59.10;;;;;;5028539;28;20032;-86
2023/06/29 09:24:19;;;;;;;2.65;1.83;;;29.20;59.60;;;;;;5028019;28;20113;-83
2023/06/29 09:26:50;;;;;;;6.20;2.92;;;29.00;59.10;;;;;;5025044;28;20022;-85
2023/06/29 09:29:17;;;;;;;3.85;2.13;;;28.60;59.70;;;;;;5027714;28;20521;-83
2023/06/29 09:32:03;;;;;;;3.00;1.80;;;27.80;59.30;;;;;;5011732;28;20038;-85
2023/06/29 09:34:28;;;;;;;2.90;2.03;;;27.90;59.70;;;;;;5027120;28;20037;-84
2023/06/29 09:36:55;;;;;;;2.42;1.60;;;28.20;60.50;;;;;;5027566;28;20383;-86
2023/06/29 09:39:21;;;;;;;1.75;1.60;;;28.80;59.00;;;;;;5011418;28;20105;-85
2023/06/29 09:41:49;;;;;;;3.72;1.60;;;29.20;58.60;;;;;;5012812;28;20089;-85
2023/06/29 09:44:19;;;;;;;2.60;1.95;;;29.20;57.20;;;;;;5028114;28;20026;-81
2023/06/29 09:47:03;;;;;;;4.75;2.40;;;29.40;58.10;;;;;;5027524;28;20022;-84
2023/06/29 09:49:30;;;;;;;3.08;1.75;;;29.50;58.80;;;;;;5006856;28;20029;-86
2023/06/29 09:52:05;;;;;;;3.60;1.95;;;29.30;57.10;;;;;;5012252;28;20073;-84
2023/06/29 09:54:34;;;;;;;4.05;2.25;;;29.70;58.00;;;;;;5012536;28;20072;-85
2023/06/29 09:57:04;;;;;;;3.17;1.70;;;29.70;57.70;;;;;;5027425;28;20026;-85
2023/06/29 09:59:40;;;;;;;2.30;2.08;;;28.90;56.90;;;;;;5012188;28;20018;-83
2023/06/29 10:02:09;;;;;;;3.67;1.80;;;28.90;58.60;;;;;;5012591;28;20029;-87
2023/06/29 10:04:40;;;;;;;8.52;2.47;;;29.30;57.50;;;;;;5027443;28;20440;-86
2023/06/29 10:07:09;;;;;;;2.63;1.65;;;29.40;59.30;;;;;;5010770;28;20046;-86
2023/06/29 10:09:40;;;;;;;5.95;2.20;;;29.30;56.50;;;;;;5012392;28;20026;-87
2023/06/29 10:12:09;;;;;;;17.52;2.15;;;29.70;57.30;;;;;;5011453;28;20125;-85
2023/06/29 10:14:40;;;;;;;5.03;1.90;;;30.20;57.00;;;;;;5011345;28;20168;-84
2023/06/29 10:17:10;;;;;;;2.40;1.67;;;30.40;57.30;;;;;;5011822;28;20144;-83
2023/06/29 10:19:38;;;;;;;4.05;1.77;;;30.70;55.90;;;;;;5014005;28;20018;-78
2023/06/29 10:22:07;;;;;;;5.27;1.70;;;30.70;54.80;;;;;;5029686;28;20030;-83
2023/06/29 10:24:47;;;;;;;3.17;1.55;;;29.90;55.90;;;;;;5025299;28;20026;-84
2023/06/29 10:27:15;;;;;;;5.28;1.48;;;29.60;56.60;;;;;;5028223;28;20026;-85
2023/06/29 10:29:48;;;;;;;5.40;1.50;;;29.90;58.70;;;;;;5011948;28;20022;-83
2023/06/29 10:32:33;;;;;;;3.88;1.73;;;30.20;55.50;;;;;;5027450;28;20065;-83
2023/06/29 10:35:23;;;;;;;4.53;2.15;;;30.70;56.90;;;;;;5032321;28;20057;-83
2023/06/29 10:37:50;;;;;;;6.97;1.58;;;30.90;54.90;;;;;;5047116;28;20029;-83
2023/06/29 10:40:22;;;;;;;3.10;1.67;;;31.50;56.70;;;;;;5034038;28;20030;-83
2023/06/29 10:42:55;;;;;;;2.08;1.75;;;32.40;55.10;;;;;;5033191;28;20057;-81
2023/06/29 10:45:21;;;;;;;3.78;1.40;;;33.00;53.50;;;;;;5024972;28;20038;-81
2023/06/29 10:47:56;;;;;;;1.40;1.30;;;33.20;55.10;;;;;;5025237;28;20475;-83
2023/06/29 10:50:24;;;;;;;1.50;1.42;;;33.30;52.60;;;;;;5029735;28;20076;-82
2023/06/29 10:52:50;;;;;;;7.82;2.20;;;32.70;52.20;;;;;;5029395;28;20034;-78
2023/06/29 10:55:23;;;;;;;2.88;2.05;;;31.70;53.00;;;;;;5041893;28;20041;-83
2023/06/29 10:57:55;;;;;;;5.05;1.90;;;31.00;53.50;;;;;;5026038;28;20073;-84
2023/06/29 11:00:22;;;;;;;3.78;2.05;;;30.20;55.40;;;;;;5044508;28;20024;-82
2023/06/29 11:02:49;;;;;;;3.20;2.42;;;30.30;55.60;;;;;;5033841;28;20022;-79
2023/06/29 11:05:16;;;;;;;2.55;1.42;;;30.60;54.70;;;;;;5038323;28;20038;-80
2023/06/29 11:07:44;;;;;;;3.47;2.03;;;31.00;55.30;;;;;;5043595;28;20104;-82
2023/06/29 11:10:11;;;;;;;4.90;2.15;;;31.20;53.70;;;;;;5043786;28;20034;-82
2023/06/29 11:12:41;;;;;;;4.60;1.63;;;30.90;54.70;;;;;;5042732;28;20034;-81
2023/06/29 11:15:14;;;;;;;5.38;2.08;;;31.30;54.80;;;;;;5043741;28;20021;-80
2023/06/29 11:17:44;;;;;;;3.17;2.10;;;30.60;56.60;;;;;;5042023;28;20057;-85
2023/06/29 11:20:14;;;;;;;7.45;1.75;;;30.20;56.80;;;;;;5035965;28;20093;-80
2023/06/29 11:22:41;;;;;;;2.72;2.13;;;30.10;55.60;;;;;;5043723;28;20030;-82
2023/06/29 11:25:08;;;;;;;4.10;2.72;;;29.90;55.50;;;;;;5044205;28;20025;-81
2023/06/29 11:27:33;;;;;;;4.20;2.65;;;29.50;54.60;;;;;;5038944;28;20022;-80
2023/06/29 11:30:00;;;;;;;4.10;2.28;;;29.70;55.80;;;;;;5025620;28;20040;-80
2023/06/29 11:32:26;;;;;;;2.28;1.98;;;30.40;53.90;;;;;;5023101;28;20033;-81
2023/06/29 11:35:03;;;;;;;2.33;1.75;;;31.20;53.30;;;;;;5036969;28;20032;-82
2023/06/29 11:37:29;;;;;;;3.47;2.17;;;32.00;53.30;;;;;;5011964;28;20030;-81
2023/06/29 11:39:55;;;;;;;2.42;2.17;;;32.40;51.70;;;;;;5027155;28;20026;-80
2023/06/29 11:42:22;;;;;;;5.45;2.47;;;31.70;53.30;;;;;;5025536;28;20698;-84
2023/06/29 11:44:49;;;;;;;4.00;2.80;;;32.40;52.60;;;;;;5011888;28;20037;-81
2023/06/29 11:47:16;;;;;;;5.53;3.40;;;31.70;51.80;;;;;;5011789;28;20290;-82
2023/06/29 11:49:42;;;;;;;5.53;2.80;;;31.30;52.40;;;;;;5028172;28;20360;-74
2023/06/29 11:52:08;;;;;;;3.92;2.50;;;31.20;52.70;;;;;;5023456;28;20557;-77
2023/06/29 11:54:34;;;;;;;6.50;3.00;;;31.20;54.40;;;;;;5010181;28;20053;-76
2023/06/29 11:57:00;;;;;;;3.60;2.47;;;31.70;53.30;;;;;;5025604;28;20061;-72
2023/06/29 11:59:26;;;;;;;3.47;2.33;;;31.70;52.30;;;;;;5009553;28;20057;-72
2023/06/29 12:01:52;;;;;;;3.40;2.40;;;31.60;52.40;;;;;;5024437;28;20033;-73
2023/06/29 12:04:18;;;;;;;2.83;2.20;;;31.50;53.60;;;;;;5025073;28;20161;-72
2023/06/29 12:06:56;;;;;;;3.53;2.42;;;30.90;53.50;;;;;;5024212;28;20113;-72
2023/06/29 12:09:29;;;;;;;4.32;2.60;;;30.70;55.10;;;;;;5009520;28;20029;-74
2023/06/29 12:11:59;;;;;;;6.32;2.35;;;30.20;54.20;;;;;;5009257;28;20108;-71
2023/06/29 12:14:34;;;;;;;5.80;2.13;;;29.70;55.60;;;;;;5009465;28;20022;-73
2023/06/29 12:17:01;;;;;;;9.93;2.35;;;29.60;56.10;;;;;;5024172;28;20026;-74
2023/06/29 12:19:31;;;;;;;3.80;1.85;;;29.00;55.30;;;;;;5009145;28;20022;-73
2023/06/29 12:21:57;;;;;;;8.13;2.88;;;28.50;56.00;;;;;;5024062;28;20080;-72
2023/06/29 12:24:25;;;;;;;4.82;2.45;;;28.80;56.90;;;;;;5024255;28;20022;-73
2023/06/29 12:26:50;;;;;;;3.42;2.30;;;28.80;58.00;;;;;;5023644;28;20026;-72
2023/06/29 12:29:16;;;;;;;3.92;2.30;;;28.90;57.20;;;;;;5008934;28;20084;-74
2023/06/29 12:31:42;;;;;;;5.28;2.40;;;28.90;58.20;;;;;;5011170;28;20065;-72
2023/06/29 12:34:07;;;;;;;4.53;2.55;;;28.80;58.20;;;;;;5009308;28;20578;-72
2023/06/29 12:36:33;;;;;;;4.13;2.85;;;28.80;58.10;;;;;;5010762;28;20120;-72
2023/06/29 12:38:59;;;;;;;2.50;2.30;;;28.80;56.60;;;;;;5009132;28;20605;-72
2023/06/29 12:41:24;;;;;;;4.55;3.22;;;29.10;57.20;;;;;;5013164;28;20033;-72
2023/06/29 12:43:50;;;;;;;6.93;2.72;;;29.20;56.90;;;;;;5011319;28;20030;-74
2023/06/29 12:46:16;;;;;;;3.05;2.47;;;29.30;56.20;;;;;;5011758;28;20014;-75